Terminal Aerodrome Forecast
Issued by NWS Charleston, WV

Current Version | Previous Version | Graphics & Text | Print | Product List | Glossary On
Versions: 1 2 3 4 5 6 7 8 9 10 11 12 13 14 15 16 17 18 19 20 21 22 23
000
FTUS41 KRLX 141136
TAFPKB
TAF
KPKB 141136Z 1412/1512 00000KT 1/2SM FG OVC001
     FM141400 00000KT 2SM BR BKN002
     FM141500 00000KT P6SM FEW050
     FM142300 18003KT P6SM FEW250
     FM150800 19005KT 4SM BR FEW250
     FM150900 19005KT 2SM BR SCT002
     FM151000 20006KT 4SM BR FEW250
     FM151100 20006KT P6SM FEW150=

USA.gov is the U.S. government's official web portal to all federal, state and local government web resources and services.